createdAt,value
2023-11-17T00:01:51.060Z,73.75
2023-11-17T00:04:23.511Z,73.94
2023-11-17T00:06:55.920Z,73.87
2023-11-17T00:09:28.104Z,73.66
2023-11-17T00:12:00.294Z,73.14
2023-11-17T00:14:32.803Z,72.63
2023-11-17T00:17:05.718Z,72.24
2023-11-17T00:19:37.771Z,72.28
2023-11-17T00:22:09.885Z,72.25
2023-11-17T00:24:42.248Z,72.27
2023-11-17T00:27:15.681Z,72.65
2023-11-17T00:29:49.800Z,72.52
2023-11-17T00:32:21.877Z,72.33
2023-11-17T00:34:54.930Z,72.31
2023-11-17T00:37:27.700Z,71.93
2023-11-17T00:39:59.849Z,71.90
2023-11-17T00:42:32.840Z,72.35
2023-11-17T00:45:05.280Z,72.26
2023-11-17T00:47:37.843Z,72.12
2023-11-17T00:50:13.527Z,71.88
2023-11-17T00:52:46.138Z,71.86
2023-11-17T00:55:18.864Z,71.89
2023-11-17T00:57:50.995Z,71.70
2023-11-17T01:00:23.544Z,71.80
2023-11-17T01:02:56.619Z,71.96
2023-11-17T01:05:29.230Z,71.80
2023-11-17T01:08:02.871Z,71.84
2023-11-17T01:10:35.358Z,72.03
2023-11-17T01:13:08.185Z,72.15
2023-11-17T01:15:40.802Z,72.23
2023-11-17T01:18:12.905Z,72.05
2023-11-17T01:20:45.204Z,72.01
2023-11-17T01:23:17.554Z,72.12
2023-11-17T01:25:50.117Z,71.68
2023-11-17T01:28:22.369Z,71.95
2023-11-17T01:30:54.772Z,71.87
2023-11-17T01:33:26.794Z,72.28
2023-11-17T01:36:00.118Z,72.76
2023-11-17T01:38:40.451Z,73.21
2023-11-17T01:41:19.072Z,73.75
2023-11-17T01:43:51.604Z,73.69
2023-11-17T01:46:25.687Z,73.61
2023-11-17T01:48:57.920Z,73.87
2023-11-17T01:51:32.391Z,73.89
2023-11-17T01:54:04.650Z,73.70
2023-11-17T01:56:38.754Z,73.45
2023-11-17T01:59:10.715Z,73.49
2023-11-17T02:01:42.887Z,73.38
2023-11-17T02:04:15.313Z,73.33
2023-11-17T02:06:54.435Z,73.37
2023-11-17T02:09:36.034Z,73.44
2023-11-17T02:12:18.906Z,73.01
2023-11-17T02:14:57.722Z,73.19
2023-11-17T02:17:30.881Z,72.99
2023-11-17T02:20:13.458Z,72.66
2023-11-17T02:22:48.758Z,72.65
2023-11-17T02:25:30.004Z,73.00
2023-11-17T02:28:13.760Z,72.98
2023-11-17T02:30:57.120Z,73.49
2023-11-17T02:33:31.534Z,73.45
2023-11-17T02:36:04.698Z,73.39
2023-11-17T02:38:39.011Z,73.06
2023-11-17T02:41:11.112Z,73.43
2023-11-17T02:43:43.480Z,73.57
2023-11-17T02:46:18.187Z,73.63
2023-11-17T02:48:48.899Z,74.00
2023-11-17T02:51:23.558Z,73.96
2023-11-17T02:53:56.543Z,73.91
2023-11-17T02:56:28.716Z,73.85
2023-11-17T02:59:01.576Z,74.03
2023-11-17T03:01:34.055Z,74.17
2023-11-17T03:04:06.514Z,74.16
2023-11-17T03:06:38.511Z,74.09
2023-11-17T03:09:14.511Z,73.79
2023-11-17T03:11:47.036Z,73.74
2023-11-17T03:14:19.197Z,73.41
2023-11-17T03:16:53.929Z,73.09
2023-11-17T03:19:25.315Z,72.90
2023-11-17T03:21:58.689Z,72.66
2023-11-17T03:24:35.284Z,72.52
2023-11-17T03:27:08.001Z,72.38
2023-11-17T03:29:40.003Z,72.22
2023-11-17T03:32:13.487Z,72.19
2023-11-17T03:34:46.072Z,72.36
2023-11-17T03:37:19.700Z,72.34
2023-11-17T03:39:52.692Z,72.48
2023-11-17T03:42:24.807Z,72.57
2023-11-17T03:44:58.362Z,72.62
2023-11-17T03:47:30.963Z,72.90
2023-11-17T03:50:03.434Z,73.20
2023-11-17T03:52:36.931Z,73.06
2023-11-17T03:55:12.556Z,73.15
2023-11-17T03:57:47.218Z,72.94
2023-11-17T04:00:23.882Z,72.93
2023-11-17T04:02:57.390Z,72.69
2023-11-17T04:05:34.589Z,72.37
2023-11-17T04:08:06.915Z,71.83
2023-11-17T04:10:39.162Z,71.49
2023-11-17T04:13:11.160Z,71.34
2023-11-17T04:15:43.521Z,71.22
2023-11-17T04:18:15.901Z,71.24
2023-11-17T04:20:49.449Z,71.28
2023-11-17T04:23:22.174Z,71.92
2023-11-17T04:25:54.268Z,72.13
2023-11-17T04:28:26.403Z,72.41
2023-11-17T04:30:58.982Z,72.36
2023-11-17T04:33:31.578Z,72.40
2023-11-17T04:36:03.904Z,71.86
2023-11-17T04:38:35.965Z,71.24
2023-11-17T04:41:08.811Z,71.00
2023-11-17T04:43:41.085Z,70.81
2023-11-17T04:46:19.914Z,70.70
2023-11-17T04:48:52.425Z,70.39
2023-11-17T04:51:24.707Z,70.51
2023-11-17T04:53:57.192Z,70.45
2023-11-17T04:56:30.139Z,70.45
2023-11-17T04:59:03.477Z,70.57
2023-11-17T05:01:36.060Z,70.76
2023-11-17T05:04:09.201Z,70.99
2023-11-17T05:06:43.624Z,71.24
2023-11-17T05:09:15.728Z,71.25
2023-11-17T05:11:47.971Z,71.00
2023-11-17T05:14:19.951Z,70.90
2023-11-17T05:17:00.521Z,70.99
2023-11-17T05:19:33.060Z,71.21
2023-11-17T05:22:05.347Z,71.28
2023-11-17T05:24:37.332Z,71.26
2023-11-17T05:27:09.502Z,71.49
2023-11-17T05:29:42.362Z,71.71
2023-11-17T05:32:14.487Z,71.70
2023-11-17T05:34:46.589Z,72.01
2023-11-17T05:37:19.590Z,72.08
2023-11-17T05:39:51.832Z,72.04
2023-11-17T05:42:24.355Z,72.41
2023-11-17T05:44:56.583Z,72.48
2023-11-17T05:47:28.996Z,72.64
2023-11-17T05:50:02.670Z,72.65
2023-11-17T05:52:35.733Z,72.41
2023-11-17T05:55:09.090Z,72.41
2023-11-17T05:57:44.040Z,72.41
2023-11-17T06:00:20.267Z,72.28
2023-11-17T06:02:53.594Z,72.24
2023-11-17T06:05:26.580Z,72.60
2023-11-17T06:07:59.067Z,72.73
2023-11-17T06:10:31.711Z,72.89
2023-11-17T06:13:05.686Z,72.76
2023-11-17T06:15:38.182Z,72.92
2023-11-17T06:18:10.327Z,73.09
2023-11-17T06:20:43.314Z,73.13
2023-11-17T06:23:15.372Z,73.22
2023-11-17T06:25:48.857Z,73.68
2023-11-17T06:28:20.948Z,73.63
2023-11-17T06:30:53.389Z,73.64
2023-11-17T06:33:25.690Z,73.67
2023-11-17T06:36:01.833Z,73.87
2023-11-17T06:38:34.867Z,74.13
2023-11-17T06:41:07.588Z,73.98
2023-11-17T06:43:39.926Z,74.36
2023-11-17T06:46:12.928Z,74.49
2023-11-17T06:48:45.056Z,73.97
2023-11-17T06:51:17.547Z,74.64
2023-11-17T06:53:51.126Z,74.49
2023-11-17T06:56:23.209Z,74.13
2023-11-17T06:58:55.337Z,74.03
2023-11-17T07:01:27.496Z,73.59
2023-11-17T07:04:00.129Z,72.92
2023-11-17T07:06:32.780Z,73.55
2023-11-17T07:09:16.859Z,73.35
2023-11-17T07:11:53.222Z,73.50
2023-11-17T07:14:26.485Z,74.11
2023-11-17T07:16:58.608Z,74.46
2023-11-17T07:19:30.705Z,74.58
2023-11-17T07:22:04.006Z,73.90
2023-11-17T07:24:36.523Z,74.60
2023-11-17T07:27:12.654Z,74.74
2023-11-17T07:29:44.609Z,75.20
2023-11-17T07:32:16.678Z,75.23
2023-11-17T07:34:49.015Z,74.43
2023-11-17T07:37:21.115Z,74.30
2023-11-17T07:39:53.295Z,73.99
2023-11-17T07:42:25.439Z,73.21
2023-11-17T07:44:57.817Z,72.72
2023-11-17T07:47:31.645Z,73.60
2023-11-17T07:50:04.823Z,73.78
2023-11-17T07:52:37.411Z,74.09
2023-11-17T07:55:10.648Z,74.98
2023-11-17T07:57:42.961Z,75.47
2023-11-17T08:00:26.267Z,74.46
2023-11-17T08:02:58.581Z,74.41
2023-11-17T08:05:30.846Z,74.20
2023-11-17T08:08:02.926Z,75.04
2023-11-17T08:10:35.098Z,75.66
2023-11-17T08:13:07.239Z,76.10
2023-11-17T08:15:39.675Z,75.79
2023-11-17T08:18:11.808Z,74.85
2023-11-17T08:20:45.545Z,75.16
2023-11-17T08:23:17.703Z,74.01
2023-11-17T08:25:50.254Z,73.79
2023-11-17T08:28:23.433Z,73.90
2023-11-17T08:30:55.672Z,73.29
2023-11-17T08:33:29.207Z,73.79
2023-11-17T08:36:02.073Z,74.08
2023-11-17T08:38:34.150Z,73.84
2023-11-17T08:41:06.435Z,73.73
2023-11-17T08:43:38.584Z,74.98
2023-11-17T08:46:11.308Z,76.44
2023-11-17T08:48:44.224Z,76.43
2023-11-17T08:51:16.282Z,75.52
2023-11-17T08:53:48.286Z,75.41
2023-11-17T08:56:20.353Z,75.00
2023-11-17T08:58:53.250Z,74.65
2023-11-17T09:01:25.320Z,76.32
2023-11-17T09:03:58.703Z,78.21
2023-11-17T09:06:31.010Z,79.11
2023-11-17T09:09:16.036Z,80.08
2023-11-17T09:11:56.770Z,81.61
2023-11-17T09:14:32.336Z,83.48
2023-11-17T09:17:08.822Z,83.57
2023-11-17T09:19:43.112Z,81.45
2023-11-17T09:22:15.719Z,77.80
2023-11-17T09:24:48.243Z,80.45
2023-11-17T09:27:20.615Z,82.55
2023-11-17T09:29:52.648Z,84.03
2023-11-17T09:32:24.773Z,81.11
2023-11-17T09:34:56.736Z,81.36
2023-11-17T09:37:30.282Z,79.86
2023-11-17T09:40:02.684Z,78.12
2023-11-17T09:42:34.774Z,78.40
2023-11-17T09:45:10.742Z,78.11
2023-11-17T09:47:45.681Z,78.98
2023-11-17T09:50:20.746Z,81.39
2023-11-17T09:52:53.470Z,80.46
2023-11-17T09:55:29.258Z,81.61
2023-11-17T09:58:06.779Z,81.81
2023-11-17T10:00:42.243Z,82.79
2023-11-17T10:03:15.756Z,82.97
2023-11-17T10:05:48.928Z,84.28
2023-11-17T10:08:21.661Z,85.57
2023-11-17T10:10:54.792Z,85.79
2023-11-17T10:13:32.456Z,86.27
2023-11-17T10:16:07.939Z,84.63
2023-11-17T10:18:42.348Z,85.51
2023-11-17T10:21:14.748Z,85.89
2023-11-17T10:23:52.343Z,84.83
2023-11-17T10:26:24.558Z,84.81
2023-11-17T10:29:00.388Z,85.89
2023-11-17T10:31:35.075Z,86.05
2023-11-17T10:34:15.666Z,86.39
2023-11-17T10:37:05.857Z,84.99
2023-11-17T10:40:00.685Z,85.24
2023-11-17T10:42:38.549Z,81.32
2023-11-17T10:45:26.463Z,82.98
2023-11-17T10:47:58.611Z,85.09
2023-11-17T10:50:30.958Z,86.61
2023-11-17T10:53:19.488Z,85.57
2023-11-17T10:55:54.759Z,84.94
2023-11-17T10:58:27.458Z,84.95
2023-11-17T11:00:59.706Z,86.88
2023-11-17T11:03:33.906Z,87.15
2023-11-17T11:06:09.437Z,85.37
2023-11-17T11:08:52.249Z,86.92
2023-11-17T11:11:30.091Z,89.97
2023-11-17T11:14:04.310Z,90.87
2023-11-17T11:16:36.641Z,88.94
2023-11-17T11:19:23.140Z,86.62
2023-11-17T11:22:02.981Z,86.87
2023-11-17T11:24:38.692Z,87.42
2023-11-17T11:27:15.739Z,88.48
2023-11-17T11:29:48.272Z,88.85
2023-11-17T11:32:21.581Z,89.63
2023-11-17T11:34:54.257Z,89.74
2023-11-17T11:37:29.956Z,91.77
2023-11-17T11:40:02.549Z,92.25
2023-11-17T11:42:35.289Z,89.37
2023-11-17T11:45:09.870Z,89.46
2023-11-17T11:47:42.307Z,89.30
2023-11-17T11:50:16.308Z,89.32
2023-11-17T11:53:11.448Z,88.30
2023-11-17T11:55:43.744Z,86.74
2023-11-17T11:58:17.255Z,87.08
2023-11-17T12:00:52.871Z,88.72
2023-11-17T12:03:27.005Z,88.36
2023-11-17T12:06:00.602Z,88.87
2023-11-17T12:08:34.035Z,91.41
2023-11-17T12:11:16.273Z,91.42
2023-11-17T12:13:51.005Z,88.95
2023-11-17T12:16:34.588Z,88.50
2023-11-17T12:19:08.146Z,89.28
2023-11-17T12:21:50.009Z,89.32
2023-11-17T12:24:24.946Z,87.48
2023-11-17T12:26:58.008Z,86.93
2023-11-17T12:29:32.726Z,86.52
2023-11-17T12:32:07.421Z,88.38
2023-11-17T12:34:45.903Z,89.28
2023-11-17T12:37:18.179Z,90.13
2023-11-17T12:39:51.239Z,91.45
2023-11-17T12:42:23.703Z,93.67
2023-11-17T12:44:56.999Z,94.28
2023-11-17T12:47:32.610Z,94.33
2023-11-17T12:50:07.628Z,94.07
2023-11-17T12:53:07.564Z,92.39
2023-11-17T12:55:49.853Z,92.87
2023-11-17T12:58:23.502Z,92.48
2023-11-17T13:01:08.624Z,91.27
2023-11-17T13:03:41.092Z,91.46
2023-11-17T13:06:13.682Z,90.78
2023-11-17T13:08:46.173Z,92.20
2023-11-17T13:11:18.416Z,90.32
2023-11-17T13:13:51.192Z,88.89
2023-11-17T13:16:29.901Z,89.62
2023-11-17T13:19:05.726Z,89.34
2023-11-17T13:21:39.172Z,88.92
2023-11-17T13:24:12.004Z,89.33
2023-11-17T13:26:44.349Z,90.34
2023-11-17T13:29:20.498Z,90.44
2023-11-17T13:32:03.219Z,89.77
2023-11-17T13:34:37.234Z,88.88
2023-11-17T13:37:12.857Z,89.73
2023-11-17T13:39:45.095Z,89.62
2023-11-17T13:42:17.759Z,88.05
2023-11-17T13:44:50.049Z,86.57
2023-11-17T13:47:22.240Z,85.78
2023-11-17T13:49:54.447Z,85.85
2023-11-17T13:52:26.486Z,85.62
2023-11-17T13:55:00.970Z,88.36
2023-11-17T13:57:33.954Z,88.27
2023-11-17T14:00:11.879Z,86.31
2023-11-17T14:02:44.284Z,85.25
2023-11-17T14:05:16.794Z,85.49
2023-11-17T14:07:49.306Z,83.95
2023-11-17T14:10:21.587Z,83.02
2023-11-17T14:12:53.709Z,82.29
2023-11-17T14:15:28.122Z,83.09
2023-11-17T14:18:00.372Z,83.41
2023-11-17T14:20:35.944Z,83.05
2023-11-17T14:23:08.558Z,83.56
2023-11-17T14:25:40.712Z,83.38
2023-11-17T14:28:16.953Z,83.33
2023-11-17T14:30:49.051Z,83.90
2023-11-17T14:33:21.142Z,83.19
2023-11-17T14:35:53.416Z,82.50
2023-11-17T14:38:28.117Z,81.30
2023-11-17T14:40:59.058Z,81.47
2023-11-17T14:43:31.124Z,83.14
2023-11-17T14:46:03.313Z,82.90
2023-11-17T14:48:35.626Z,83.33
2023-11-17T14:51:08.711Z,85.22
2023-11-17T14:53:40.841Z,83.89
2023-11-17T14:56:13.128Z,83.93
2023-11-17T14:58:45.625Z,84.98
2023-11-17T15:01:18.248Z,85.39
2023-11-17T15:03:50.508Z,85.87
2023-11-17T15:06:22.915Z,86.39
2023-11-17T15:08:55.755Z,87.40
2023-11-17T15:11:28.117Z,88.65
2023-11-17T15:14:05.497Z,88.10
2023-11-17T15:16:39.806Z,87.13
2023-11-17T15:19:13.694Z,87.20
2023-11-17T15:21:45.845Z,87.66
2023-11-17T15:24:23.126Z,88.18
2023-11-17T15:26:57.062Z,86.65
2023-11-17T15:29:32.209Z,86.58
2023-11-17T15:32:09.763Z,87.36
2023-11-17T15:34:43.460Z,87.16
2023-11-17T15:37:15.560Z,88.04
2023-11-17T15:39:47.820Z,89.09
2023-11-17T15:42:20.658Z,90.34
2023-11-17T15:44:55.583Z,90.45
2023-11-17T15:47:29.107Z,91.56
2023-11-17T15:50:01.317Z,89.82
2023-11-17T15:52:33.782Z,88.65
2023-11-17T15:55:08.422Z,88.56
2023-11-17T15:57:41.298Z,88.91
2023-11-17T16:00:16.538Z,87.22
2023-11-17T16:02:48.732Z,87.15
2023-11-17T16:05:22.944Z,88.24
2023-11-17T16:07:55.803Z,90.41
2023-11-17T16:10:27.969Z,90.63
2023-11-17T16:13:00.628Z,91.04
2023-11-17T16:15:32.976Z,92.41
2023-11-17T16:18:05.772Z,91.64
2023-11-17T16:20:38.972Z,91.24
2023-11-17T16:23:16.099Z,91.04
2023-11-17T16:25:49.725Z,92.07
2023-11-17T16:28:21.841Z,92.48
2023-11-17T16:30:54.404Z,93.82
2023-11-17T16:33:26.508Z,93.48
2023-11-17T16:35:58.824Z,92.99
2023-11-17T16:38:30.982Z,92.89
2023-11-17T16:41:05.187Z,91.10
2023-11-17T16:43:37.452Z,90.28
2023-11-17T16:46:12.761Z,89.63
2023-11-17T16:48:45.112Z,89.67
2023-11-17T16:51:18.238Z,89.37
2023-11-17T16:53:50.351Z,89.99
2023-11-17T16:56:22.370Z,91.09
2023-11-17T16:58:54.570Z,90.65
2023-11-17T17:01:28.717Z,91.38
2023-11-17T17:04:02.447Z,91.44
2023-11-17T17:06:35.127Z,91.07
2023-11-17T17:09:10.012Z,90.48
2023-11-17T17:11:42.020Z,90.26
2023-11-17T17:14:20.140Z,89.79
2023-11-17T17:16:54.708Z,90.28
2023-11-17T17:19:30.873Z,90.15
2023-11-17T17:22:04.223Z,90.47
2023-11-17T17:24:37.938Z,89.60
2023-11-17T17:27:10.974Z,88.73
2023-11-17T17:29:43.863Z,89.48
2023-11-17T17:32:16.349Z,89.40
2023-11-17T17:34:49.385Z,88.48
2023-11-17T17:37:21.928Z,88.42
2023-11-17T17:39:54.796Z,88.01
2023-11-17T17:42:27.242Z,87.82
2023-11-17T17:44:59.439Z,87.47
2023-11-17T17:47:33.277Z,87.33
2023-11-17T17:50:06.173Z,86.98
2023-11-17T17:52:39.581Z,87.43
2023-11-17T17:55:12.541Z,87.41
2023-11-17T17:57:45.993Z,88.01
2023-11-17T18:00:19.708Z,87.91
2023-11-17T18:02:54.051Z,88.70
2023-11-17T18:05:26.850Z,90.11
2023-11-17T18:07:59.380Z,89.86
2023-11-17T18:10:33.190Z,89.06
2023-11-17T18:13:05.651Z,88.83
2023-11-17T18:15:38.436Z,89.22
2023-11-17T18:18:11.960Z,89.61
2023-11-17T18:20:44.030Z,91.32
2023-11-17T18:23:16.942Z,92.15
2023-11-17T18:25:49.552Z,90.47
2023-11-17T18:28:21.719Z,87.28
2023-11-17T18:30:53.978Z,85.37
2023-11-17T18:33:26.313Z,85.40
2023-11-17T18:35:59.365Z,86.31
2023-11-17T18:38:31.498Z,83.76
2023-11-17T18:41:04.580Z,85.11
2023-11-17T18:43:40.205Z,84.60
2023-11-17T18:46:12.462Z,85.82
2023-11-17T18:48:44.447Z,86.93
2023-11-17T18:51:17.262Z,87.61
2023-11-17T18:53:49.323Z,87.01
2023-11-17T18:56:21.616Z,86.94
2023-11-17T18:58:53.785Z,86.59
2023-11-17T19:01:27.212Z,86.88
2023-11-17T19:03:59.678Z,87.77
2023-11-17T19:06:32.302Z,87.56
2023-11-17T19:09:05.330Z,88.15
2023-11-17T19:11:38.761Z,88.29
2023-11-17T19:14:12.850Z,88.20
2023-11-17T19:16:45.070Z,88.05
2023-11-17T19:19:17.464Z,87.83
2023-11-17T19:21:49.770Z,87.93
2023-11-17T19:24:23.407Z,88.30
2023-11-17T19:27:11.203Z,88.84
2023-11-17T19:29:46.019Z,88.84
2023-11-17T19:32:18.208Z,87.57
2023-11-17T19:34:53.066Z,87.07
2023-11-17T19:37:26.559Z,88.44
2023-11-17T19:39:58.672Z,90.34
2023-11-17T19:42:30.812Z,90.30
2023-11-17T19:45:03.643Z,90.25
2023-11-17T19:47:36.138Z,91.45
2023-11-17T19:50:14.452Z,90.75
2023-11-17T19:52:49.664Z,89.68
2023-11-17T19:55:24.181Z,89.70
2023-11-17T19:57:57.053Z,89.34
2023-11-17T20:00:30.006Z,90.13
2023-11-17T20:03:02.449Z,90.38
2023-11-17T20:05:34.842Z,91.06
2023-11-17T20:08:09.366Z,91.66
2023-11-17T20:10:41.870Z,90.34
2023-11-17T20:13:14.567Z,88.05
2023-11-17T20:15:47.118Z,89.12
2023-11-17T20:18:19.219Z,89.73
2023-11-17T20:20:51.275Z,90.30
2023-11-17T20:23:23.316Z,89.59
2023-11-17T20:25:55.404Z,88.86
2023-11-17T20:28:27.523Z,88.47
2023-11-17T20:30:59.874Z,88.56
2023-11-17T20:33:32.102Z,88.23
2023-11-17T20:36:04.780Z,90.08
2023-11-17T20:38:39.286Z,91.77
2023-11-17T20:41:12.302Z,91.93
2023-11-17T20:43:45.305Z,90.60
2023-11-17T20:46:25.821Z,88.99
2023-11-17T20:48:58.208Z,86.98
2023-11-17T20:51:30.271Z,86.44
2023-11-17T20:54:05.797Z,86.42
2023-11-17T20:56:38.747Z,86.82
2023-11-17T20:59:13.296Z,88.08
2023-11-17T21:01:48.335Z,87.51
2023-11-17T21:04:20.646Z,87.08
2023-11-17T21:06:54.512Z,86.74
2023-11-17T21:09:28.728Z,86.88
2023-11-17T21:12:07.495Z,86.78
2023-11-17T21:14:41.420Z,86.80
2023-11-17T21:17:13.802Z,86.59
2023-11-17T21:19:46.972Z,86.12
2023-11-17T21:22:19.161Z,86.40
2023-11-17T21:24:51.777Z,86.85
2023-11-17T21:27:26.699Z,86.45
2023-11-17T21:29:59.249Z,86.61
2023-11-17T21:32:32.670Z,86.63
2023-11-17T21:35:13.349Z,86.66
2023-11-17T21:37:46.572Z,86.67
2023-11-17T21:40:21.423Z,87.02
2023-11-17T21:42:54.049Z,86.99
2023-11-17T21:45:27.429Z,87.60
2023-11-17T21:47:59.768Z,87.95
2023-11-17T21:50:32.748Z,88.67
2023-11-17T21:53:06.214Z,89.03
2023-11-17T21:55:39.029Z,88.52
2023-11-17T21:58:11.517Z,87.89
2023-11-17T22:00:43.937Z,87.38
2023-11-17T22:03:16.151Z,86.65
2023-11-17T22:05:48.574Z,85.91
2023-11-17T22:08:20.756Z,85.70
2023-11-17T22:10:52.830Z,85.49
2023-11-17T22:13:26.378Z,85.07
2023-11-17T22:15:58.485Z,84.96
2023-11-17T22:18:30.975Z,84.66
2023-11-17T22:21:06.051Z,84.77
2023-11-17T22:23:38.226Z,84.61
2023-11-17T22:26:14.090Z,84.31
2023-11-17T22:28:46.784Z,84.66
2023-11-17T22:31:25.723Z,84.90
2023-11-17T22:33:58.058Z,84.93
2023-11-17T22:36:30.174Z,85.23
2023-11-17T22:39:09.223Z,85.00
2023-11-17T22:41:41.819Z,84.97
2023-11-17T22:44:13.937Z,84.77
2023-11-17T22:46:48.920Z,84.95
2023-11-17T22:49:21.422Z,85.59
2023-11-17T22:51:53.477Z,85.88
2023-11-17T22:54:25.491Z,85.55
2023-11-17T22:56:57.595Z,85.71
2023-11-17T22:59:31.512Z,85.43
2023-11-17T23:02:09.231Z,85.36
2023-11-17T23:04:41.741Z,84.65
2023-11-17T23:07:13.870Z,84.70
2023-11-17T23:09:47.969Z,85.06
2023-11-17T23:12:20.783Z,85.16
2023-11-17T23:14:52.927Z,85.06
2023-11-17T23:17:25.756Z,84.88
2023-11-17T23:19:57.833Z,84.04
2023-11-17T23:22:30.041Z,84.19
2023-11-17T23:25:06.761Z,84.36
2023-11-17T23:27:39.610Z,84.00
2023-11-17T23:30:14.862Z,83.68
2023-11-17T23:32:47.297Z,83.61
2023-11-17T23:35:19.751Z,83.57
2023-11-17T23:37:51.953Z,83.29
2023-11-17T23:40:24.715Z,83.52
2023-11-17T23:42:56.950Z,83.97
2023-11-17T23:45:30.801Z,83.82
2023-11-17T23:48:03.626Z,83.66
2023-11-17T23:50:36.191Z,83.67
2023-11-17T23:53:08.894Z,83.22
2023-11-17T23:55:41.058Z,82.96
2023-11-17T23:58:13.377Z,83.17
